createdAt,value
2022-12-20T00:00:28.019Z,100578.56
2022-12-20T00:05:29.448Z,100590.16
2022-12-20T00:10:30.834Z,100574.91
2022-12-20T00:15:32.310Z,100562.94
2022-12-20T00:20:33.814Z,100541.69
2022-12-20T00:25:35.208Z,100539.31
2022-12-20T00:30:36.621Z,100518.75
2022-12-20T00:35:42.347Z,100536.22
2022-12-20T00:40:43.734Z,100555.94
2022-12-20T00:45:45.121Z,100546.69
2022-12-20T00:50:46.506Z,100547.34
2022-12-20T00:55:47.928Z,100550.25
2022-12-20T01:00:55.721Z,100545.75
2022-12-20T01:06:02.110Z,100546.00
2022-12-20T01:11:17.825Z,100529.06
2022-12-20T01:16:20.155Z,100525.19
2022-12-20T01:21:22.436Z,100520.34
2022-12-20T01:26:26.047Z,100507.44
2022-12-20T01:31:27.740Z,100524.00
2022-12-20T01:36:31.485Z,100535.75
2022-12-20T01:41:32.896Z,100520.03
2022-12-20T01:46:34.878Z,100524.63
2022-12-20T01:51:39.565Z,100514.28
2022-12-20T01:56:40.963Z,100517.88
2022-12-20T02:01:42.963Z,100503.97
2022-12-20T02:06:44.479Z,100501.69
2022-12-20T02:11:59.653Z,100514.28
2022-12-20T02:17:40.232Z,100507.25
2022-12-20T02:23:00.300Z,100498.03
2022-12-20T02:28:32.667Z,100498.84
2022-12-20T02:33:34.099Z,100501.69
2022-12-20T02:38:36.813Z,100523.75
2022-12-20T02:43:57.728Z,100515.25
2022-12-20T02:49:01.271Z,100512.06
2022-12-20T02:54:02.677Z,100497.53
2022-12-20T02:59:28.678Z,100490.31
2022-12-20T03:04:31.113Z,100487.72
2022-12-20T03:09:33.881Z,100488.34
2022-12-20T03:14:35.312Z,100478.59
2022-12-20T03:19:36.793Z,100480.84
2022-12-20T03:24:38.247Z,100471.38
2022-12-20T03:29:39.636Z,100480.84
2022-12-20T03:34:41.008Z,100475.00
2022-12-20T03:39:42.412Z,100471.44
2022-12-20T03:44:43.847Z,100474.88
2022-12-20T03:49:45.295Z,100470.78
2022-12-20T03:54:46.687Z,100473.88
2022-12-20T03:59:48.066Z,100479.22
2022-12-20T04:04:49.477Z,100468.13
2022-12-20T04:09:50.899Z,100480.81
2022-12-20T04:14:52.296Z,100471.19
2022-12-20T04:19:53.707Z,100467.84
2022-12-20T04:24:55.105Z,100474.16
2022-12-20T04:29:56.478Z,100458.91
2022-12-20T04:34:57.868Z,100459.53
2022-12-20T04:39:59.561Z,100463.22
2022-12-20T04:45:01.023Z,100461.00
2022-12-20T04:50:02.437Z,100460.94
2022-12-20T04:55:03.906Z,100442.38
2022-12-20T05:00:05.819Z,100450.81
2022-12-20T05:05:07.496Z,100441.44
2022-12-20T05:10:09.283Z,100432.25
2022-12-20T05:15:13.582Z,100438.03
2022-12-20T05:20:15.037Z,100440.63
2022-12-20T05:25:34.985Z,100433.94
2022-12-20T05:30:36.371Z,100430.13
2022-12-20T05:35:37.757Z,100435.16
2022-12-20T05:40:39.691Z,100424.06
2022-12-20T05:45:41.202Z,100421.38
2022-12-20T05:50:44.094Z,100416.63
2022-12-20T05:55:47.721Z,100413.78
2022-12-20T06:00:49.206Z,100403.94
2022-12-20T06:05:50.587Z,100413.53
2022-12-20T06:10:52.044Z,100403.88
2022-12-20T06:15:53.643Z,100390.94
2022-12-20T06:20:55.470Z,100405.91
2022-12-20T06:25:57.871Z,100413.72
2022-12-20T06:30:59.360Z,100422.06
2022-12-20T06:36:00.729Z,100408.63
2022-12-20T06:41:02.120Z,100407.81
2022-12-20T06:46:03.583Z,100402.25
2022-12-20T06:51:05.175Z,100417.09
2022-12-20T06:56:06.846Z,100423.97
2022-12-20T07:01:08.306Z,100436.38
2022-12-20T07:06:09.743Z,100426.06
2022-12-20T07:11:11.823Z,100433.53
2022-12-20T07:16:13.249Z,100422.25
2022-12-20T07:21:17.132Z,100418.34
2022-12-20T07:26:18.520Z,100406.06
2022-12-20T07:31:19.942Z,100401.31
2022-12-20T07:36:21.351Z,100405.44
2022-12-20T07:41:22.740Z,100399.06
2022-12-20T07:46:24.207Z,100388.63
2022-12-20T07:51:37.172Z,100405.25
2022-12-20T07:56:41.559Z,100409.75
2022-12-20T08:01:43.573Z,100410.31
2022-12-20T08:06:45.083Z,100434.56
2022-12-20T08:11:47.234Z,100427.66
2022-12-20T08:16:48.712Z,100424.91
2022-12-20T08:21:50.155Z,100427.56
2022-12-20T08:26:51.613Z,100419.38
2022-12-20T08:31:53.001Z,100419.66
2022-12-20T08:36:54.393Z,100414.31
2022-12-20T08:41:55.763Z,100424.53
2022-12-20T08:46:57.206Z,100434.06
2022-12-20T08:51:58.586Z,100417.91
2022-12-20T08:56:59.968Z,100417.06
2022-12-20T09:02:01.471Z,100416.69
2022-12-20T09:07:02.921Z,100421.94
2022-12-20T09:12:04.490Z,100414.66
2022-12-20T09:17:06.292Z,100423.81
2022-12-20T09:22:08.650Z,100429.34
2022-12-20T09:27:10.045Z,100428.41
2022-12-20T09:32:11.412Z,100439.91
2022-12-20T09:37:12.804Z,100429.22
2022-12-20T09:42:14.177Z,100436.72
2022-12-20T09:47:19.871Z,100423.81
2022-12-20T09:52:39.763Z,100436.16
2022-12-20T09:58:03.732Z,100431.19
2022-12-20T10:03:10.316Z,100430.47
2022-12-20T10:08:24.413Z,100431.94
2022-12-20T10:13:41.563Z,100440.25
2022-12-20T10:18:57.921Z,100439.53
2022-12-20T10:24:04.808Z,100427.75
2022-12-20T10:29:06.216Z,100412.31
2022-12-20T10:34:07.877Z,100430.66
2022-12-20T10:39:09.597Z,100421.38
2022-12-20T10:44:27.159Z,100431.56
2022-12-20T10:49:34.672Z,100395.13
2022-12-20T10:54:39.817Z,100384.19
2022-12-20T10:59:43.280Z,100389.41
2022-12-20T11:04:44.681Z,100386.16
2022-12-20T11:09:52.662Z,100381.25
2022-12-20T11:15:34.241Z,100355.75
2022-12-20T11:21:16.993Z,100340.63
2022-12-20T11:26:49.043Z,100329.22
2022-12-20T11:32:28.231Z,100332.91
2022-12-20T11:37:34.054Z,100320.91
2022-12-20T11:42:42.261Z,100326.00
2022-12-20T11:48:12.518Z,100300.06
2022-12-20T11:53:25.230Z,100299.84
2022-12-20T11:58:39.358Z,100322.31
2022-12-20T12:03:42.912Z,100306.38
2022-12-20T12:08:49.971Z,100318.16
2022-12-20T12:13:51.354Z,100296.41
2022-12-20T12:18:52.919Z,100275.75
2022-12-20T12:23:58.823Z,100260.50
2022-12-20T12:29:20.437Z,100246.34
2022-12-20T12:34:58.009Z,100228.38
2022-12-20T12:40:33.794Z,100241.81
2022-12-20T12:45:37.808Z,100236.47
2022-12-20T12:50:43.027Z,100230.50
2022-12-20T12:55:51.303Z,100225.69
2022-12-20T13:00:54.220Z,100226.75
2022-12-20T13:05:55.757Z,100225.47
2022-12-20T13:10:58.977Z,100221.16
2022-12-20T13:16:06.275Z,100217.50
2022-12-20T13:21:37.184Z,100212.28
2022-12-20T13:26:43.749Z,100185.38
2022-12-20T13:31:49.552Z,100180.63
2022-12-20T13:36:58.585Z,100169.69
2022-12-20T13:42:37.610Z,100171.91
2022-12-20T13:47:47.016Z,100172.03
2022-12-20T13:52:48.399Z,100155.50
2022-12-20T13:57:49.793Z,100166.69
2022-12-20T14:02:51.264Z,100163.13
2022-12-20T14:07:57.103Z,100161.75
2022-12-20T14:12:58.372Z,100155.84
2022-12-20T14:18:26.277Z,100150.22
2022-12-20T14:23:47.738Z,100144.66
2022-12-20T14:28:49.913Z,100141.56
2022-12-20T14:33:51.886Z,100128.59
2022-12-20T14:38:53.292Z,100129.34
2022-12-20T14:43:59.727Z,100118.13
2022-12-20T14:49:22.629Z,100121.00
2022-12-20T14:55:05.890Z,100105.78
2022-12-20T15:00:17.899Z,100093.72
2022-12-20T15:05:40.469Z,100102.22
2022-12-20T15:11:03.056Z,100110.19
2022-12-20T15:16:13.756Z,100106.63
2022-12-20T15:21:30.946Z,100105.66
2022-12-20T15:26:32.679Z,100112.66
2022-12-20T15:31:35.078Z,100106.50
2022-12-20T15:36:38.191Z,100121.28
2022-12-20T15:41:42.563Z,100112.63
2022-12-20T15:46:44.357Z,100119.38
2022-12-20T15:51:46.163Z,100118.19
2022-12-20T15:56:47.688Z,100122.00
2022-12-20T16:01:49.277Z,100113.22
2022-12-20T16:06:50.926Z,100108.72
2022-12-20T16:11:52.383Z,100111.44
2022-12-20T16:16:53.786Z,100114.94
2022-12-20T16:21:55.186Z,100113.34
2022-12-20T16:26:56.614Z,100116.09
2022-12-20T16:31:58.050Z,100103.13
2022-12-20T16:37:00.703Z,100109.16
2022-12-20T16:42:02.087Z,100122.00
2022-12-20T16:47:03.490Z,100117.28
2022-12-20T16:52:06.311Z,100111.72
2022-12-20T16:57:08.323Z,100121.56
2022-12-20T17:02:27.189Z,100108.13
2022-12-20T17:07:28.719Z,100104.81
2022-12-20T17:12:30.193Z,100092.56
2022-12-20T17:17:31.564Z,100080.53
2022-12-20T17:22:32.940Z,100095.53
2022-12-20T17:27:34.355Z,100103.16
2022-12-20T17:32:35.751Z,100093.16
2022-12-20T17:37:37.121Z,100084.81
2022-12-20T17:42:38.498Z,100076.97
2022-12-20T17:47:39.898Z,100086.69
2022-12-20T17:52:41.614Z,100071.34
2022-12-20T17:57:43.020Z,100082.91
2022-12-20T18:02:44.509Z,100074.44
2022-12-20T18:07:55.495Z,100066.59
2022-12-20T18:12:56.911Z,100046.19
2022-12-20T18:17:58.293Z,100036.00
2022-12-20T18:22:59.685Z,100042.41
2022-12-20T18:28:01.101Z,100052.97
2022-12-20T18:33:02.479Z,100023.50
2022-12-20T18:38:03.857Z,100022.81
2022-12-20T18:43:06.520Z,100024.38
2022-12-20T18:48:08.006Z,100013.69
2022-12-20T18:53:09.556Z,100031.50
2022-12-20T18:58:10.942Z,100025.44
2022-12-20T19:03:15.917Z,100026.63
2022-12-20T19:08:18.919Z,100027.94
2022-12-20T19:13:20.289Z,100029.00
2022-12-20T19:18:21.662Z,100027.25
2022-12-20T19:23:23.113Z,100005.63
2022-12-20T19:28:24.522Z,100012.75
2022-12-20T19:33:25.931Z,100001.09
2022-12-20T19:38:27.325Z,100010.38
2022-12-20T19:43:28.909Z,99992.56
2022-12-20T19:48:32.836Z,99982.38
2022-12-20T19:53:35.343Z,100003.13
2022-12-20T19:58:36.950Z,99995.53
2022-12-20T20:03:38.485Z,99986.25
2022-12-20T20:08:39.919Z,99980.06
2022-12-20T20:13:41.406Z,100005.88
2022-12-20T20:18:42.951Z,99981.28
2022-12-20T20:23:44.440Z,99973.81
2022-12-20T20:28:45.946Z,99994.84
2022-12-20T20:33:47.418Z,100002.34
2022-12-20T20:38:49.539Z,99981.75
2022-12-20T20:43:50.932Z,99971.22
2022-12-20T20:48:52.327Z,99974.09
2022-12-20T20:53:53.721Z,99970.56
2022-12-20T20:59:00.909Z,99978.44
2022-12-20T21:04:06.874Z,99966.81
2022-12-20T21:09:08.702Z,99986.25
2022-12-20T21:14:11.039Z,99979.72
2022-12-20T21:19:12.539Z,99961.22
2022-12-20T21:24:13.927Z,99961.72
2022-12-20T21:29:15.323Z,99947.97
2022-12-20T21:34:16.687Z,99970.59
2022-12-20T21:39:18.091Z,99967.88
2022-12-20T21:44:19.468Z,99969.53
2022-12-20T21:49:20.893Z,99961.84
2022-12-20T21:54:23.109Z,99962.63
2022-12-20T21:59:24.499Z,99966.94
2022-12-20T22:04:27.149Z,99974.06
2022-12-20T22:09:28.532Z,99958.84
2022-12-20T22:14:29.934Z,99956.59
2022-12-20T22:19:31.309Z,99973.25
2022-12-20T22:24:33.271Z,99951.38
2022-12-20T22:29:34.848Z,99959.09
2022-12-20T22:34:36.215Z,99937.47
2022-12-20T22:39:37.598Z,99932.84
2022-12-20T22:44:39.015Z,99929.53
2022-12-20T22:49:40.600Z,99940.47
2022-12-20T22:54:41.973Z,99928.84
2022-12-20T22:59:43.375Z,99932.47
2022-12-20T23:04:44.770Z,99932.94
2022-12-20T23:09:46.915Z,99922.72
2022-12-20T23:15:26.398Z,99923.78
2022-12-20T23:20:46.207Z,99915.75
2022-12-20T23:25:47.583Z,99916.44
2022-12-20T23:30:48.982Z,99909.66
2022-12-20T23:35:57.395Z,99883.38
2022-12-20T23:40:58.800Z,99878.41
2022-12-20T23:46:07.591Z,99890.00
2022-12-20T23:51:09.703Z,99880.28
2022-12-20T23:56:16.025Z,99870.59
